sensor_id;sensor_type;location;lat;lon;timestamp;temperature;humidity
28761;DHT22;15917;50.014;8.352;2023-10-19T00:01:10;11.20;99.90
28761;DHT22;15917;50.014;8.352;2023-10-19T00:03:37;11.30;99.90
28761;DHT22;15917;50.014;8.352;2023-10-19T00:06:03;11.30;99.90
28761;DHT22;15917;50.014;8.352;2023-10-19T00:08:30;11.30;99.90
28761;DHT22;15917;50.014;8.352;2023-10-19T00:11:07;11.30;99.90
28761;DHT22;15917;50.014;8.352;2023-10-19T00:13:47;11.30;99.90
28761;DHT22;15917;50.014;8.352;2023-10-19T00:16:15;11.30;99.90
28761;DHT22;15917;50.014;8.352;2023-10-19T00:18:48;11.30;99.90
28761;DHT22;15917;50.014;8.352;2023-10-19T00:21:15;11.30;99.90
28761;DHT22;15917;50.014;8.352;2023-10-19T00:23:47;11.40;99.90
28761;DHT22;15917;50.014;8.352;2023-10-19T00:26:14;11.40;99.90
28761;DHT22;15917;50.014;8.352;2023-10-19T00:28:53;11.40;99.90
28761;DHT22;15917;50.014;8.352;2023-10-19T00:31:21;11.40;99.90
28761;DHT22;15917;50.014;8.352;2023-10-19T00:33:47;11.40;99.90
28761;DHT22;15917;50.014;8.352;2023-10-19T00:36:13;11.40;99.90
28761;DHT22;15917;50.014;8.352;2023-10-19T00:38:40;11.40;99.90
28761;DHT22;15917;50.014;8.352;2023-10-19T00:41:18;11.40;99.90
28761;DHT22;15917;50.014;8.352;2023-10-19T00:43:56;11.40;99.90
28761;DHT22;15917;50.014;8.352;2023-10-19T00:46:38;11.40;99.90
28761;DHT22;15917;50.014;8.352;2023-10-19T00:49:09;11.40;99.90
28761;DHT22;15917;50.014;8.352;2023-10-19T00:51:52;11.40;99.90
28761;DHT22;15917;50.014;8.352;2023-10-19T00:54:34;11.40;99.90
28761;DHT22;15917;50.014;8.352;2023-10-19T00:57:02;11.40;99.90
28761;DHT22;15917;50.014;8.352;2023-10-19T00:59:41;11.40;99.90
28761;DHT22;15917;50.014;8.352;2023-10-19T01:02:14;11.40;99.90
28761;DHT22;15917;50.014;8.352;2023-10-19T01:04:56;11.40;99.90
28761;DHT22;15917;50.014;8.352;2023-10-19T01:07:28;11.40;99.90
28761;DHT22;15917;50.014;8.352;2023-10-19T01:10:01;11.40;99.90
28761;DHT22;15917;50.014;8.352;2023-10-19T01:12:31;11.40;99.90
28761;DHT22;15917;50.014;8.352;2023-10-19T01:17:40;11.50;99.90
28761;DHT22;15917;50.014;8.352;2023-10-19T01:20:08;11.40;99.90
28761;DHT22;15917;50.014;8.352;2023-10-19T01:22:59;11.50;99.90
28761;DHT22;15917;50.014;8.352;2023-10-19T01:25:50;11.50;99.90
28761;DHT22;15917;50.014;8.352;2023-10-19T01:28:35;11.50;99.90
28761;DHT22;15917;50.014;8.352;2023-10-19T01:31:04;11.60;99.90
28761;DHT22;15917;50.014;8.352;2023-10-19T01:33:31;11.60;99.90
28761;DHT22;15917;50.014;8.352;2023-10-19T01:36:00;11.60;99.90
28761;DHT22;15917;50.014;8.352;2023-10-19T01:38:40;11.60;99.90
28761;DHT22;15917;50.014;8.352;2023-10-19T01:41:08;11.60;99.90
28761;DHT22;15917;50.014;8.352;2023-10-19T01:43:44;11.60;99.90
28761;DHT22;15917;50.014;8.352;2023-10-19T01:46:12;11.70;99.90
28761;DHT22;15917;50.014;8.352;2023-10-19T01:48:42;11.70;99.90
28761;DHT22;15917;50.014;8.352;2023-10-19T01:51:09;11.70;99.90
28761;DHT22;15917;50.014;8.352;2023-10-19T01:53:40;11.70;99.90
28761;DHT22;15917;50.014;8.352;2023-10-19T01:56:11;11.70;99.90
28761;DHT22;15917;50.014;8.352;2023-10-19T01:58:39;11.70;99.90
28761;DHT22;15917;50.014;8.352;2023-10-19T02:01:06;11.70;99.90
28761;DHT22;15917;50.014;8.352;2023-10-19T02:03:53;11.70;99.90
28761;DHT22;15917;50.014;8.352;2023-10-19T02:06:20;11.70;99.90
28761;DHT22;15917;50.014;8.352;2023-10-19T02:08:50;11.70;99.90
28761;DHT22;15917;50.014;8.352;2023-10-19T02:11:24;11.70;99.90
28761;DHT22;15917;50.014;8.352;2023-10-19T02:13:56;11.70;99.90
28761;DHT22;15917;50.014;8.352;2023-10-19T02:16:25;11.70;99.90
28761;DHT22;15917;50.014;8.352;2023-10-19T02:18:52;11.80;99.90
28761;DHT22;15917;50.014;8.352;2023-10-19T02:21:19;11.80;99.90
28761;DHT22;15917;50.014;8.352;2023-10-19T02:23:48;11.80;99.90
28761;DHT22;15917;50.014;8.352;2023-10-19T02:26:17;11.80;99.90
28761;DHT22;15917;50.014;8.352;2023-10-19T02:28:48;11.80;99.90
28761;DHT22;15917;50.014;8.352;2023-10-19T02:31:17;11.80;99.90
28761;DHT22;15917;50.014;8.352;2023-10-19T02:33:54;11.80;99.90
28761;DHT22;15917;50.014;8.352;2023-10-19T02:36:30;11.80;99.90
28761;DHT22;15917;50.014;8.352;2023-10-19T02:38:56;11.80;99.90
28761;DHT22;15917;50.014;8.352;2023-10-19T02:41:24;11.80;99.90
28761;DHT22;15917;50.014;8.352;2023-10-19T02:43:52;11.90;99.90
28761;DHT22;15917;50.014;8.352;2023-10-19T02:46:34;11.90;99.90
28761;DHT22;15917;50.014;8.352;2023-10-19T02:49:03;11.90;99.90
28761;DHT22;15917;50.014;8.352;2023-10-19T02:51:31;11.90;99.90
28761;DHT22;15917;50.014;8.352;2023-10-19T02:53:57;11.90;99.90
28761;DHT22;15917;50.014;8.352;2023-10-19T02:56:26;11.90;99.90
28761;DHT22;15917;50.014;8.352;2023-10-19T02:58:55;11.90;99.90
28761;DHT22;15917;50.014;8.352;2023-10-19T03:01:27;11.90;99.90
28761;DHT22;15917;50.014;8.352;2023-10-19T03:04:01;11.90;99.90
28761;DHT22;15917;50.014;8.352;2023-10-19T03:06:29;12.00;99.90
28761;DHT22;15917;50.014;8.352;2023-10-19T03:09:05;12.00;99.90
28761;DHT22;15917;50.014;8.352;2023-10-19T03:11:39;12.00;99.90
28761;DHT22;15917;50.014;8.352;2023-10-19T03:14:07;12.00;99.90
28761;DHT22;15917;50.014;8.352;2023-10-19T03:16:35;12.00;99.90
28761;DHT22;15917;50.014;8.352;2023-10-19T03:19:01;12.00;99.90
28761;DHT22;15917;50.014;8.352;2023-10-19T03:21:27;12.00;99.90
28761;DHT22;15917;50.014;8.352;2023-10-19T03:23:56;12.00;99.90
28761;DHT22;15917;50.014;8.352;2023-10-19T03:26:28;12.00;99.90
28761;DHT22;15917;50.014;8.352;2023-10-19T03:28:57;12.00;99.90
28761;DHT22;15917;50.014;8.352;2023-10-19T03:31:33;12.00;99.90
28761;DHT22;15917;50.014;8.352;2023-10-19T03:34:02;12.00;99.90
28761;DHT22;15917;50.014;8.352;2023-10-19T03:36:30;12.00;99.90
28761;DHT22;15917;50.014;8.352;2023-10-19T03:38:58;12.00;99.90
28761;DHT22;15917;50.014;8.352;2023-10-19T03:41:30;12.00;99.90
28761;DHT22;15917;50.014;8.352;2023-10-19T03:44:01;12.00;99.90
28761;DHT22;15917;50.014;8.352;2023-10-19T03:46:27;12.00;99.90
28761;DHT22;15917;50.014;8.352;2023-10-19T03:48:57;12.00;99.90
28761;DHT22;15917;50.014;8.352;2023-10-19T03:51:37;12.10;99.90
28761;DHT22;15917;50.014;8.352;2023-10-19T03:54:06;12.10;99.90
28761;DHT22;15917;50.014;8.352;2023-10-19T03:56:49;12.10;99.90
28761;DHT22;15917;50.014;8.352;2023-10-19T03:59:16;12.10;99.90
28761;DHT22;15917;50.014;8.352;2023-10-19T04:01:43;12.10;99.90
28761;DHT22;15917;50.014;8.352;2023-10-19T04:04:09;12.20;99.90
28761;DHT22;15917;50.014;8.352;2023-10-19T04:06:35;12.20;99.90
28761;DHT22;15917;50.014;8.352;2023-10-19T04:09:02;12.20;99.90
28761;DHT22;15917;50.014;8.352;2023-10-19T04:11:31;12.20;99.90
28761;DHT22;15917;50.014;8.352;2023-10-19T04:14:13;12.20;99.90
28761;DHT22;15917;50.014;8.352;2023-10-19T04:16:41;12.20;99.90
28761;DHT22;15917;50.014;8.352;2023-10-19T04:19:09;12.20;99.90
28761;DHT22;15917;50.014;8.352;2023-10-19T04:21:36;12.20;99.90
28761;DHT22;15917;50.014;8.352;2023-10-19T04:24:05;12.20;99.90
28761;DHT22;15917;50.014;8.352;2023-10-19T04:26:33;12.20;99.90
28761;DHT22;15917;50.014;8.352;2023-10-19T04:29:03;12.20;99.90
28761;DHT22;15917;50.014;8.352;2023-10-19T04:31:36;12.20;99.90
28761;DHT22;15917;50.014;8.352;2023-10-19T04:34:20;12.20;99.90
28761;DHT22;15917;50.014;8.352;2023-10-19T04:36:50;12.20;99.90
28761;DHT22;15917;50.014;8.352;2023-10-19T04:39:16;12.30;99.90
28761;DHT22;15917;50.014;8.352;2023-10-19T04:41:45;12.30;99.90
28761;DHT22;15917;50.014;8.352;2023-10-19T04:44:11;12.30;99.90
28761;DHT22;15917;50.014;8.352;2023-10-19T04:46:37;12.30;99.90
28761;DHT22;15917;50.014;8.352;2023-10-19T04:49:02;12.30;99.90
28761;DHT22;15917;50.014;8.352;2023-10-19T04:51:31;12.30;99.90
28761;DHT22;15917;50.014;8.352;2023-10-19T04:53:57;12.20;99.90
28761;DHT22;15917;50.014;8.352;2023-10-19T04:56:22;12.20;99.90
28761;DHT22;15917;50.014;8.352;2023-10-19T04:58:48;12.10;99.90
28761;DHT22;15917;50.014;8.352;2023-10-19T05:01:14;12.10;99.90
28761;DHT22;15917;50.014;8.352;2023-10-19T05:03:40;12.10;99.90
28761;DHT22;15917;50.014;8.352;2023-10-19T05:06:06;12.00;99.90
28761;DHT22;15917;50.014;8.352;2023-10-19T05:08:32;12.10;99.90
28761;DHT22;15917;50.014;8.352;2023-10-19T05:10:58;12.10;99.90
28761;DHT22;15917;50.014;8.352;2023-10-19T05:13:27;12.10;99.90
28761;DHT22;15917;50.014;8.352;2023-10-19T05:15:54;12.10;99.90
28761;DHT22;15917;50.014;8.352;2023-10-19T05:18:22;12.10;99.90
28761;DHT22;15917;50.014;8.352;2023-10-19T05:20:48;12.10;99.90
28761;DHT22;15917;50.014;8.352;2023-10-19T05:23:14;12.10;99.90
28761;DHT22;15917;50.014;8.352;2023-10-19T05:25:40;12.10;99.90
28761;DHT22;15917;50.014;8.352;2023-10-19T05:28:06;12.10;99.90
28761;DHT22;15917;50.014;8.352;2023-10-19T05:30:33;12.10;99.90
28761;DHT22;15917;50.014;8.352;2023-10-19T05:32:59;12.10;99.90
28761;DHT22;15917;50.014;8.352;2023-10-19T05:35:28;12.10;99.90
28761;DHT22;15917;50.014;8.352;2023-10-19T05:37:53;12.00;99.90
28761;DHT22;15917;50.014;8.352;2023-10-19T05:40:23;12.10;99.90
28761;DHT22;15917;50.014;8.352;2023-10-19T05:42:49;12.10;99.90
28761;DHT22;15917;50.014;8.352;2023-10-19T05:45:15;12.10;99.90
28761;DHT22;15917;50.014;8.352;2023-10-19T05:47:43;12.10;99.90
28761;DHT22;15917;50.014;8.352;2023-10-19T05:50:10;12.00;99.90
28761;DHT22;15917;50.014;8.352;2023-10-19T05:52:40;12.10;99.90
28761;DHT22;15917;50.014;8.352;2023-10-19T05:55:08;12.10;99.90
28761;DHT22;15917;50.014;8.352;2023-10-19T05:57:35;12.10;99.90
28761;DHT22;15917;50.014;8.352;2023-10-19T06:00:01;12.10;99.90
28761;DHT22;15917;50.014;8.352;2023-10-19T06:02:27;12.10;99.90
28761;DHT22;15917;50.014;8.352;2023-10-19T06:04:52;12.20;99.90
28761;DHT22;15917;50.014;8.352;2023-10-19T06:07:18;12.20;99.90
28761;DHT22;15917;50.014;8.352;2023-10-19T06:09:43;12.20;99.90
28761;DHT22;15917;50.014;8.352;2023-10-19T06:12:09;12.20;99.90
28761;DHT22;15917;50.014;8.352;2023-10-19T06:14:35;12.20;99.90
28761;DHT22;15917;50.014;8.352;2023-10-19T06:17:01;12.20;99.90
28761;DHT22;15917;50.014;8.352;2023-10-19T06:19:27;12.30;99.90
28761;DHT22;15917;50.014;8.352;2023-10-19T06:21:52;12.30;99.90
28761;DHT22;15917;50.014;8.352;2023-10-19T06:24:18;12.30;99.90
28761;DHT22;15917;50.014;8.352;2023-10-19T06:26:44;12.30;99.90
28761;DHT22;15917;50.014;8.352;2023-10-19T06:29:10;12.20;99.90
28761;DHT22;15917;50.014;8.352;2023-10-19T06:31:36;12.30;99.90
28761;DHT22;15917;50.014;8.352;2023-10-19T06:34:01;12.30;99.90
28761;DHT22;15917;50.014;8.352;2023-10-19T06:36:28;12.30;99.90
28761;DHT22;15917;50.014;8.352;2023-10-19T06:38:57;12.20;99.90
28761;DHT22;15917;50.014;8.352;2023-10-19T06:41:22;12.30;99.90
28761;DHT22;15917;50.014;8.352;2023-10-19T06:43:49;12.30;99.90
28761;DHT22;15917;50.014;8.352;2023-10-19T06:46:15;12.30;99.90
28761;DHT22;15917;50.014;8.352;2023-10-19T06:48:41;12.40;99.90
28761;DHT22;15917;50.014;8.352;2023-10-19T06:51:07;12.40;99.90
28761;DHT22;15917;50.014;8.352;2023-10-19T06:53:33;12.40;99.90
28761;DHT22;15917;50.014;8.352;2023-10-19T06:56:00;12.50;99.90
28761;DHT22;15917;50.014;8.352;2023-10-19T06:58:26;12.50;99.90
28761;DHT22;15917;50.014;8.352;2023-10-19T07:00:53;12.40;99.90
28761;DHT22;15917;50.014;8.352;2023-10-19T07:03:22;12.50;99.90
28761;DHT22;15917;50.014;8.352;2023-10-19T07:05:48;12.50;99.90
28761;DHT22;15917;50.014;8.352;2023-10-19T07:08:15;12.50;99.90
28761;DHT22;15917;50.014;8.352;2023-10-19T07:10:41;12.50;99.90
28761;DHT22;15917;50.014;8.352;2023-10-19T07:13:08;12.50;99.90
28761;DHT22;15917;50.014;8.352;2023-10-19T07:15:34;12.60;99.90
28761;DHT22;15917;50.014;8.352;2023-10-19T07:17:59;12.60;99.90
28761;DHT22;15917;50.014;8.352;2023-10-19T07:20:26;12.60;99.90
28761;DHT22;15917;50.014;8.352;2023-10-19T07:22:59;12.60;99.90
28761;DHT22;15917;50.014;8.352;2023-10-19T07:25:36;12.60;99.90
28761;DHT22;15917;50.014;8.352;2023-10-19T07:28:12;12.70;99.90
28761;DHT22;15917;50.014;8.352;2023-10-19T07:30:42;12.70;99.90
28761;DHT22;15917;50.014;8.352;2023-10-19T07:33:09;12.70;99.90
28761;DHT22;15917;50.014;8.352;2023-10-19T07:35:38;12.70;99.90
28761;DHT22;15917;50.014;8.352;2023-10-19T07:38:05;12.70;99.90
28761;DHT22;15917;50.014;8.352;2023-10-19T07:40:33;12.70;99.90
28761;DHT22;15917;50.014;8.352;2023-10-19T07:42:59;12.70;99.90
28761;DHT22;15917;50.014;8.352;2023-10-19T07:45:25;12.70;99.90
28761;DHT22;15917;50.014;8.352;2023-10-19T07:47:51;12.70;99.90
28761;DHT22;15917;50.014;8.352;2023-10-19T07:50:17;12.70;99.90
28761;DHT22;15917;50.014;8.352;2023-10-19T07:52:52;12.70;99.90
28761;DHT22;15917;50.014;8.352;2023-10-19T07:55:20;12.70;99.90
28761;DHT22;15917;50.014;8.352;2023-10-19T07:57:52;12.70;99.90
28761;DHT22;15917;50.014;8.352;2023-10-19T08:00:19;12.70;99.90
28761;DHT22;15917;50.014;8.352;2023-10-19T08:02:46;12.80;99.90
28761;DHT22;15917;50.014;8.352;2023-10-19T08:05:16;12.80;99.90
28761;DHT22;15917;50.014;8.352;2023-10-19T08:07:44;12.80;99.90
28761;DHT22;15917;50.014;8.352;2023-10-19T08:10:11;12.90;99.90
28761;DHT22;15917;50.014;8.352;2023-10-19T08:12:38;12.90;99.90
28761;DHT22;15917;50.014;8.352;2023-10-19T08:15:07;12.90;99.90
28761;DHT22;15917;50.014;8.352;2023-10-19T08:17:33;12.90;99.90
28761;DHT22;15917;50.014;8.352;2023-10-19T08:19:59;12.90;99.90
28761;DHT22;15917;50.014;8.352;2023-10-19T08:22:28;12.90;99.90
28761;DHT22;15917;50.014;8.352;2023-10-19T08:24:55;12.90;99.90
28761;DHT22;15917;50.014;8.352;2023-10-19T08:27:21;12.90;99.90
28761;DHT22;15917;50.014;8.352;2023-10-19T08:29:49;12.90;99.90
28761;DHT22;15917;50.014;8.352;2023-10-19T08:32:15;12.90;99.90
28761;DHT22;15917;50.014;8.352;2023-10-19T08:34:41;12.90;99.90
28761;DHT22;15917;50.014;8.352;2023-10-19T08:37:07;12.90;99.90
28761;DHT22;15917;50.014;8.352;2023-10-19T08:39:33;12.90;99.90
28761;DHT22;15917;50.014;8.352;2023-10-19T08:42:05;13.00;99.90
28761;DHT22;15917;50.014;8.352;2023-10-19T08:44:31;13.00;99.90
28761;DHT22;15917;50.014;8.352;2023-10-19T08:46:57;13.10;99.90
28761;DHT22;15917;50.014;8.352;2023-10-19T08:49:25;13.10;99.90
28761;DHT22;15917;50.014;8.352;2023-10-19T08:51:53;13.20;99.90
28761;DHT22;15917;50.014;8.352;2023-10-19T08:54:20;13.20;99.90
28761;DHT22;15917;50.014;8.352;2023-10-19T08:56:46;13.30;99.90
28761;DHT22;15917;50.014;8.352;2023-10-19T08:59:13;13.40;99.90
28761;DHT22;15917;50.014;8.352;2023-10-19T09:01:41;13.50;99.90
28761;DHT22;15917;50.014;8.352;2023-10-19T09:04:13;13.50;99.90
28761;DHT22;15917;50.014;8.352;2023-10-19T09:06:44;13.40;99.90
28761;DHT22;15917;50.014;8.352;2023-10-19T09:09:13;13.40;99.90
28761;DHT22;15917;50.014;8.352;2023-10-19T09:11:45;13.40;99.90
28761;DHT22;15917;50.014;8.352;2023-10-19T09:14:12;13.40;99.90
28761;DHT22;15917;50.014;8.352;2023-10-19T09:16:53;13.40;99.90
28761;DHT22;15917;50.014;8.352;2023-10-19T09:19:20;13.40;99.90
28761;DHT22;15917;50.014;8.352;2023-10-19T09:21:45;13.50;99.90
28761;DHT22;15917;50.014;8.352;2023-10-19T09:24:11;13.50;99.90
28761;DHT22;15917;50.014;8.352;2023-10-19T09:26:37;13.50;99.90
28761;DHT22;15917;50.014;8.352;2023-10-19T09:29:03;13.50;99.90
28761;DHT22;15917;50.014;8.352;2023-10-19T09:31:29;13.50;99.90
28761;DHT22;15917;50.014;8.352;2023-10-19T09:33:56;13.40;99.90
28761;DHT22;15917;50.014;8.352;2023-10-19T09:36:24;13.50;99.90
28761;DHT22;15917;50.014;8.352;2023-10-19T09:38:52;13.60;99.90
28761;DHT22;15917;50.014;8.352;2023-10-19T09:41:22;13.60;99.90
28761;DHT22;15917;50.014;8.352;2023-10-19T09:43:57;13.80;99.90
28761;DHT22;15917;50.014;8.352;2023-10-19T09:46:31;13.90;99.90
28761;DHT22;15917;50.014;8.352;2023-10-19T09:48:57;13.90;99.90
28761;DHT22;15917;50.014;8.352;2023-10-19T09:51:24;13.90;99.90
28761;DHT22;15917;50.014;8.352;2023-10-19T09:54:07;14.10;99.90
28761;DHT22;15917;50.014;8.352;2023-10-19T09:56:40;14.20;99.90
28761;DHT22;15917;50.014;8.352;2023-10-19T09:59:13;14.30;99.90
28761;DHT22;15917;50.014;8.352;2023-10-19T10:02:08;14.20;99.90
28761;DHT22;15917;50.014;8.352;2023-10-19T10:04:42;14.30;99.90
28761;DHT22;15917;50.014;8.352;2023-10-19T10:07:09;14.40;99.90
28761;DHT22;15917;50.014;8.352;2023-10-19T10:09:40;14.40;99.90
28761;DHT22;15917;50.014;8.352;2023-10-19T10:12:23;14.40;99.90
28761;DHT22;15917;50.014;8.352;2023-10-19T10:15:03;14.50;99.90
28761;DHT22;15917;50.014;8.352;2023-10-19T10:17:39;14.40;99.90
28761;DHT22;15917;50.014;8.352;2023-10-19T10:22:40;14.40;99.90
28761;DHT22;15917;50.014;8.352;2023-10-19T10:25:25;14.40;99.90
28761;DHT22;15917;50.014;8.352;2023-10-19T10:27:51;14.60;99.90
28761;DHT22;15917;50.014;8.352;2023-10-19T10:30:17;14.70;99.90
28761;DHT22;15917;50.014;8.352;2023-10-19T10:32:47;14.90;99.90
28761;DHT22;15917;50.014;8.352;2023-10-19T10:38:10;14.90;99.90
28761;DHT22;15917;50.014;8.352;2023-10-19T10:40:43;15.00;99.90
28761;DHT22;15917;50.014;8.352;2023-10-19T10:43:09;15.10;99.90
28761;DHT22;15917;50.014;8.352;2023-10-19T10:45:36;15.40;99.90
28761;DHT22;15917;50.014;8.352;2023-10-19T10:48:02;15.60;99.90
28761;DHT22;15917;50.014;8.352;2023-10-19T10:50:29;15.90;99.90
28761;DHT22;15917;50.014;8.352;2023-10-19T10:52:55;16.00;99.90
28761;DHT22;15917;50.014;8.352;2023-10-19T10:55:23;16.10;99.90
28761;DHT22;15917;50.014;8.352;2023-10-19T10:57:51;16.10;99.90
28761;DHT22;15917;50.014;8.352;2023-10-19T11:00:17;16.10;99.90
28761;DHT22;15917;50.014;8.352;2023-10-19T11:02:45;16.00;99.90
28761;DHT22;15917;50.014;8.352;2023-10-19T11:05:13;16.00;99.90
28761;DHT22;15917;50.014;8.352;2023-10-19T11:07:40;16.00;99.90
28761;DHT22;15917;50.014;8.352;2023-10-19T11:10:06;15.90;99.90
28761;DHT22;15917;50.014;8.352;2023-10-19T11:12:33;15.90;99.90
28761;DHT22;15917;50.014;8.352;2023-10-19T11:14:59;15.80;99.90
28761;DHT22;15917;50.014;8.352;2023-10-19T11:17:28;15.80;99.90
28761;DHT22;15917;50.014;8.352;2023-10-19T11:19:57;15.70;99.90
28761;DHT22;15917;50.014;8.352;2023-10-19T11:22:25;15.70;99.90
28761;DHT22;15917;50.014;8.352;2023-10-19T11:24:55;15.60;99.90
28761;DHT22;15917;50.014;8.352;2023-10-19T11:27:28;15.60;99.90
28761;DHT22;15917;50.014;8.352;2023-10-19T11:29:55;15.60;99.90
28761;DHT22;15917;50.014;8.352;2023-10-19T11:32:25;15.50;99.90
28761;DHT22;15917;50.014;8.352;2023-10-19T11:34:54;15.70;99.90
28761;DHT22;15917;50.014;8.352;2023-10-19T11:37:21;15.60;99.90
28761;DHT22;15917;50.014;8.352;2023-10-19T11:39:47;15.50;99.90
28761;DHT22;15917;50.014;8.352;2023-10-19T11:42:15;15.50;99.90
28761;DHT22;15917;50.014;8.352;2023-10-19T11:44:44;15.50;99.90
28761;DHT22;15917;50.014;8.352;2023-10-19T11:47:12;15.60;99.90
28761;DHT22;15917;50.014;8.352;2023-10-19T11:49:39;15.70;99.90
28761;DHT22;15917;50.014;8.352;2023-10-19T11:52:05;15.70;99.90
28761;DHT22;15917;50.014;8.352;2023-10-19T11:54:33;15.80;99.90
28761;DHT22;15917;50.014;8.352;2023-10-19T11:56:59;15.80;99.90
28761;DHT22;15917;50.014;8.352;2023-10-19T11:59:25;15.90;99.90
28761;DHT22;15917;50.014;8.352;2023-10-19T12:01:51;15.90;99.90
28761;DHT22;15917;50.014;8.352;2023-10-19T12:04:17;16.00;99.90
28761;DHT22;15917;50.014;8.352;2023-10-19T12:06:43;16.00;99.90
28761;DHT22;15917;50.014;8.352;2023-10-19T12:09:11;16.10;99.90
28761;DHT22;15917;50.014;8.352;2023-10-19T12:11:43;16.10;99.90
28761;DHT22;15917;50.014;8.352;2023-10-19T12:14:12;16.10;99.90
28761;DHT22;15917;50.014;8.352;2023-10-19T12:16:40;16.10;99.90
28761;DHT22;15917;50.014;8.352;2023-10-19T12:19:06;16.10;99.90
28761;DHT22;15917;50.014;8.352;2023-10-19T12:21:35;16.10;99.90
28761;DHT22;15917;50.014;8.352;2023-10-19T12:24:03;16.00;99.90
28761;DHT22;15917;50.014;8.352;2023-10-19T12:26:30;16.10;99.90
28761;DHT22;15917;50.014;8.352;2023-10-19T12:28:56;16.00;99.90
28761;DHT22;15917;50.014;8.352;2023-10-19T12:31:21;16.00;99.90
28761;DHT22;15917;50.014;8.352;2023-10-19T12:33:48;16.00;99.90
28761;DHT22;15917;50.014;8.352;2023-10-19T12:36:14;16.00;99.90
28761;DHT22;15917;50.014;8.352;2023-10-19T12:38:58;15.90;99.90
28761;DHT22;15917;50.014;8.352;2023-10-19T12:41:24;15.90;99.90
28761;DHT22;15917;50.014;8.352;2023-10-19T12:43:50;15.90;99.90
28761;DHT22;15917;50.014;8.352;2023-10-19T12:46:23;15.90;99.90
28761;DHT22;15917;50.014;8.352;2023-10-19T12:48:58;15.80;99.90
28761;DHT22;15917;50.014;8.352;2023-10-19T12:51:24;15.80;99.90
28761;DHT22;15917;50.014;8.352;2023-10-19T12:53:53;15.80;99.90
28761;DHT22;15917;50.014;8.352;2023-10-19T12:56:20;15.80;99.90
28761;DHT22;15917;50.014;8.352;2023-10-19T12:58:46;15.80;99.90
28761;DHT22;15917;50.014;8.352;2023-10-19T13:01:14;15.80;99.90
28761;DHT22;15917;50.014;8.352;2023-10-19T13:03:45;15.80;99.90
28761;DHT22;15917;50.014;8.352;2023-10-19T13:06:12;15.80;99.90
28761;DHT22;15917;50.014;8.352;2023-10-19T13:08:38;15.80;99.90
28761;DHT22;15917;50.014;8.352;2023-10-19T13:11:06;15.90;99.90
28761;DHT22;15917;50.014;8.352;2023-10-19T13:13:32;15.90;99.90
28761;DHT22;15917;50.014;8.352;2023-10-19T13:15:58;16.00;99.90
28761;DHT22;15917;50.014;8.352;2023-10-19T13:18:25;16.00;99.90
28761;DHT22;15917;50.014;8.352;2023-10-19T13:20:53;16.00;99.90
28761;DHT22;15917;50.014;8.352;2023-10-19T13:23:20;16.00;99.90
28761;DHT22;15917;50.014;8.352;2023-10-19T13:25:49;16.10;99.90
28761;DHT22;15917;50.014;8.352;2023-10-19T13:28:17;16.00;99.90
28761;DHT22;15917;50.014;8.352;2023-10-19T13:30:46;16.00;99.90
28761;DHT22;15917;50.014;8.352;2023-10-19T13:33:13;16.00;99.90
28761;DHT22;15917;50.014;8.352;2023-10-19T13:35:41;16.00;99.90
28761;DHT22;15917;50.014;8.352;2023-10-19T13:38:08;16.00;99.90
28761;DHT22;15917;50.014;8.352;2023-10-19T13:40:35;16.00;99.90
28761;DHT22;15917;50.014;8.352;2023-10-19T13:43:01;16.00;99.90
28761;DHT22;15917;50.014;8.352;2023-10-19T13:45:31;15.90;99.90
28761;DHT22;15917;50.014;8.352;2023-10-19T13:47:58;16.00;99.90
28761;DHT22;15917;50.014;8.352;2023-10-19T13:50:24;16.10;99.90
28761;DHT22;15917;50.014;8.352;2023-10-19T13:52:53;16.20;99.90
28761;DHT22;15917;50.014;8.352;2023-10-19T13:55:19;16.20;99.90
28761;DHT22;15917;50.014;8.352;2023-10-19T13:57:47;16.20;99.90
28761;DHT22;15917;50.014;8.352;2023-10-19T14:00:14;16.20;99.90
28761;DHT22;15917;50.014;8.352;2023-10-19T14:02:45;16.10;99.90
28761;DHT22;15917;50.014;8.352;2023-10-19T14:05:12;16.00;99.90
28761;DHT22;15917;50.014;8.352;2023-10-19T14:07:38;16.00;99.90
28761;DHT22;15917;50.014;8.352;2023-10-19T14:10:09;15.90;99.90
28761;DHT22;15917;50.014;8.352;2023-10-19T14:12:38;15.90;99.90
28761;DHT22;15917;50.014;8.352;2023-10-19T14:15:10;15.90;99.90
28761;DHT22;15917;50.014;8.352;2023-10-19T14:17:36;15.90;99.90
28761;DHT22;15917;50.014;8.352;2023-10-19T14:20:02;15.90;99.90
28761;DHT22;15917;50.014;8.352;2023-10-19T14:22:30;15.80;99.90
28761;DHT22;15917;50.014;8.352;2023-10-19T14:25:00;15.80;99.90
28761;DHT22;15917;50.014;8.352;2023-10-19T14:27:26;15.80;99.90
28761;DHT22;15917;50.014;8.352;2023-10-19T14:29:51;15.70;99.90
28761;DHT22;15917;50.014;8.352;2023-10-19T14:32:17;15.70;99.90
28761;DHT22;15917;50.014;8.352;2023-10-19T14:34:43;15.70;99.90
28761;DHT22;15917;50.014;8.352;2023-10-19T14:37:08;15.70;99.90
28761;DHT22;15917;50.014;8.352;2023-10-19T14:39:34;15.70;99.90
28761;DHT22;15917;50.014;8.352;2023-10-19T14:42:00;15.60;99.90
28761;DHT22;15917;50.014;8.352;2023-10-19T14:44:26;15.60;99.90
28761;DHT22;15917;50.014;8.352;2023-10-19T14:46:53;15.60;99.90
28761;DHT22;15917;50.014;8.352;2023-10-19T14:49:18;15.60;99.90
28761;DHT22;15917;50.014;8.352;2023-10-19T14:51:44;15.60;99.90
28761;DHT22;15917;50.014;8.352;2023-10-19T14:54:09;15.50;99.90
28761;DHT22;15917;50.014;8.352;2023-10-19T14:56:37;15.50;99.90
28761;DHT22;15917;50.014;8.352;2023-10-19T14:59:03;15.50;99.90
28761;DHT22;15917;50.014;8.352;2023-10-19T15:01:31;15.70;99.90
28761;DHT22;15917;50.014;8.352;2023-10-19T15:03:56;15.70;99.90
28761;DHT22;15917;50.014;8.352;2023-10-19T15:06:22;15.70;99.90
28761;DHT22;15917;50.014;8.352;2023-10-19T15:08:47;15.70;99.90
28761;DHT22;15917;50.014;8.352;2023-10-19T15:11:19;15.60;99.90
28761;DHT22;15917;50.014;8.352;2023-10-19T15:13:47;15.60;99.90
28761;DHT22;15917;50.014;8.352;2023-10-19T15:16:13;15.60;99.90
28761;DHT22;15917;50.014;8.352;2023-10-19T15:18:39;15.50;99.90
28761;DHT22;15917;50.014;8.352;2023-10-19T15:21:11;15.60;99.90
28761;DHT22;15917;50.014;8.352;2023-10-19T15:23:39;15.60;99.90
28761;DHT22;15917;50.014;8.352;2023-10-19T15:26:06;15.60;99.90
28761;DHT22;15917;50.014;8.352;2023-10-19T15:28:32;15.70;99.90
28761;DHT22;15917;50.014;8.352;2023-10-19T15:30:59;15.70;99.90
28761;DHT22;15917;50.014;8.352;2023-10-19T15:33:26;15.70;99.90
28761;DHT22;15917;50.014;8.352;2023-10-19T15:35:57;15.70;99.90
28761;DHT22;15917;50.014;8.352;2023-10-19T15:38:23;15.80;99.90
28761;DHT22;15917;50.014;8.352;2023-10-19T15:40:49;15.80;99.90
28761;DHT22;15917;50.014;8.352;2023-10-19T15:43:15;15.80;99.90
28761;DHT22;15917;50.014;8.352;2023-10-19T15:45:42;15.90;99.90
28761;DHT22;15917;50.014;8.352;2023-10-19T15:48:10;15.90;99.90